sensor_id;sensor_type;location;lat;lon;timestamp;pressure;altitude;pressure_sealevel;temperature;humidity
10718;BME280;13513;42.700;23.124;2023-10-19T00:00:41;92996.89;;;9.48;100.00
10718;BME280;13513;42.700;23.124;2023-10-19T00:03:14;92987.78;;;9.55;100.00
10718;BME280;13513;42.700;23.124;2023-10-19T00:05:43;92988.16;;;9.61;100.00
10718;BME280;13513;42.700;23.124;2023-10-19T00:08:20;92984.25;;;9.50;100.00
10718;BME280;13513;42.700;23.124;2023-10-19T00:10:53;92980.48;;;9.60;100.00
10718;BME280;13513;42.700;23.124;2023-10-19T00:13:22;92981.52;;;9.59;100.00
10718;BME280;13513;42.700;23.124;2023-10-19T00:15:49;92976.75;;;9.58;100.00
10718;BME280;13513;42.700;23.124;2023-10-19T00:18:18;92977.80;;;9.57;100.00
10718;BME280;13513;42.700;23.124;2023-10-19T00:20:54;92971.38;;;9.37;100.00
10718;BME280;13513;42.700;23.124;2023-10-19T00:23:39;92964.86;;;9.25;100.00
10718;BME280;13513;42.700;23.124;2023-10-19T00:26:07;92974.91;;;9.28;100.00
10718;BME280;13513;42.700;23.124;2023-10-19T00:28:38;92965.53;;;9.35;100.00
10718;BME280;13513;42.700;23.124;2023-10-19T00:31:07;92956.72;;;9.43;100.00
10718;BME280;13513;42.700;23.124;2023-10-19T00:33:38;92961.38;;;9.22;100.00
10718;BME280;13513;42.700;23.124;2023-10-19T00:36:09;92955.87;;;9.24;100.00
10718;BME280;13513;42.700;23.124;2023-10-19T00:38:39;92967.81;;;9.15;100.00
10718;BME280;13513;42.700;23.124;2023-10-19T00:41:27;92961.69;;;9.26;100.00
10718;BME280;13513;42.700;23.124;2023-10-19T00:43:58;92956.09;;;9.22;100.00
10718;BME280;13513;42.700;23.124;2023-10-19T00:46:39;92956.94;;;8.97;100.00
10718;BME280;13513;42.700;23.124;2023-10-19T00:49:12;92959.11;;;9.00;100.00
10718;BME280;13513;42.700;23.124;2023-10-19T00:54:26;92956.38;;;8.81;100.00
10718;BME280;13513;42.700;23.124;2023-10-19T00:57:08;92953.09;;;8.88;100.00
10718;BME280;13513;42.700;23.124;2023-10-19T00:59:38;92957.56;;;9.02;100.00
10718;BME280;13513;42.700;23.124;2023-10-19T01:02:16;92953.55;;;9.13;100.00
10718;BME280;13513;42.700;23.124;2023-10-19T01:04:53;92950.83;;;9.08;100.00
10718;BME280;13513;42.700;23.124;2023-10-19T01:07:34;92956.63;;;8.94;100.00
10718;BME280;13513;42.700;23.124;2023-10-19T01:10:04;92958.65;;;9.03;100.00
10718;BME280;13513;42.700;23.124;2023-10-19T01:12:34;92966.55;;;8.89;100.00
10718;BME280;13513;42.700;23.124;2023-10-19T01:15:15;92967.05;;;8.75;100.00
10718;BME280;13513;42.700;23.124;2023-10-19T01:17:50;92961.88;;;8.66;100.00
10718;BME280;13513;42.700;23.124;2023-10-19T01:20:18;92964.12;;;8.60;100.00
10718;BME280;13513;42.700;23.124;2023-10-19T01:23:04;92963.91;;;8.50;100.00
10718;BME280;13513;42.700;23.124;2023-10-19T01:25:47;92954.04;;;8.43;100.00
10718;BME280;13513;42.700;23.124;2023-10-19T01:28:24;92957.27;;;8.33;100.00
10718;BME280;13513;42.700;23.124;2023-10-19T01:30:54;92952.95;;;8.18;100.00
10718;BME280;13513;42.700;23.124;2023-10-19T01:33:22;92947.88;;;8.14;100.00
10718;BME280;13513;42.700;23.124;2023-10-19T01:35:50;92953.69;;;8.16;100.00
10718;BME280;13513;42.700;23.124;2023-10-19T01:38:35;92952.83;;;8.13;100.00
10718;BME280;13513;42.700;23.124;2023-10-19T01:41:04;92957.03;;;8.11;100.00
10718;BME280;13513;42.700;23.124;2023-10-19T01:43:34;92967.05;;;8.00;100.00
10718;BME280;13513;42.700;23.124;2023-10-19T01:46:03;92966.98;;;7.98;100.00
10718;BME280;13513;42.700;23.124;2023-10-19T01:48:43;92965.72;;;8.00;100.00
10718;BME280;13513;42.700;23.124;2023-10-19T01:51:11;92970.07;;;7.95;100.00
10718;BME280;13513;42.700;23.124;2023-10-19T01:53:41;92965.36;;;7.97;100.00
10718;BME280;13513;42.700;23.124;2023-10-19T01:56:12;92966.17;;;7.97;100.00
10718;BME280;13513;42.700;23.124;2023-10-19T01:58:42;92967.22;;;7.96;100.00
10718;BME280;13513;42.700;23.124;2023-10-19T02:01:10;92951.06;;;7.93;100.00
10718;BME280;13513;42.700;23.124;2023-10-19T02:03:42;92954.58;;;7.84;100.00
10718;BME280;13513;42.700;23.124;2023-10-19T02:06:12;92952.61;;;7.91;100.00
10718;BME280;13513;42.700;23.124;2023-10-19T02:08:51;92955.60;;;7.95;100.00
10718;BME280;13513;42.700;23.124;2023-10-19T02:11:26;92954.50;;;7.82;100.00
10718;BME280;13513;42.700;23.124;2023-10-19T02:13:52;92953.77;;;7.84;100.00
10718;BME280;13513;42.700;23.124;2023-10-19T02:16:22;92959.25;;;7.82;100.00
10718;BME280;13513;42.700;23.124;2023-10-19T02:18:51;92964.38;;;7.66;100.00
10718;BME280;13513;42.700;23.124;2023-10-19T02:21:19;92959.01;;;7.72;100.00
10718;BME280;13513;42.700;23.124;2023-10-19T02:23:51;92966.81;;;7.79;100.00
10718;BME280;13513;42.700;23.124;2023-10-19T02:26:19;92957.64;;;7.70;100.00
10718;BME280;13513;42.700;23.124;2023-10-19T02:28:49;92959.18;;;7.68;100.00
10718;BME280;13513;42.700;23.124;2023-10-19T02:31:18;92962.45;;;7.73;100.00
10718;BME280;13513;42.700;23.124;2023-10-19T02:33:49;92957.36;;;7.69;100.00
10718;BME280;13513;42.700;23.124;2023-10-19T02:36:20;92968.88;;;7.56;100.00
10718;BME280;13513;42.700;23.124;2023-10-19T02:38:48;92961.00;;;7.56;100.00
10718;BME280;13513;42.700;23.124;2023-10-19T02:41:17;92959.19;;;7.57;100.00
10718;BME280;13513;42.700;23.124;2023-10-19T02:43:47;92963.52;;;7.51;100.00
10718;BME280;13513;42.700;23.124;2023-10-19T02:46:19;92959.53;;;7.28;100.00
10718;BME280;13513;42.700;23.124;2023-10-19T02:48:47;92959.03;;;7.29;100.00
10718;BME280;13513;42.700;23.124;2023-10-19T02:51:16;92953.28;;;7.41;100.00
10718;BME280;13513;42.700;23.124;2023-10-19T02:53:45;92959.69;;;7.45;100.00
10718;BME280;13513;42.700;23.124;2023-10-19T02:56:14;92959.63;;;7.42;100.00
10718;BME280;13513;42.700;23.124;2023-10-19T02:58:46;92956.52;;;7.45;100.00
10718;BME280;13513;42.700;23.124;2023-10-19T03:01:18;92953.73;;;7.49;100.00
10718;BME280;13513;42.700;23.124;2023-10-19T03:03:50;92951.66;;;7.40;100.00
10718;BME280;13513;42.700;23.124;2023-10-19T03:06:24;92945.78;;;7.47;100.00
10718;BME280;13513;42.700;23.124;2023-10-19T03:08:52;92949.00;;;7.49;100.00
10718;BME280;13513;42.700;23.124;2023-10-19T03:11:21;92939.47;;;7.57;100.00
10718;BME280;13513;42.700;23.124;2023-10-19T03:13:48;92940.41;;;7.53;100.00
10718;BME280;13513;42.700;23.124;2023-10-19T03:16:18;92946.42;;;7.51;100.00
10718;BME280;13513;42.700;23.124;2023-10-19T03:18:47;92944.45;;;7.56;100.00
10718;BME280;13513;42.700;23.124;2023-10-19T03:21:15;92945.84;;;7.38;100.00
10718;BME280;13513;42.700;23.124;2023-10-19T03:23:45;92948.13;;;7.46;100.00
10718;BME280;13513;42.700;23.124;2023-10-19T03:26:13;92951.91;;;7.50;100.00
10718;BME280;13513;42.700;23.124;2023-10-19T03:28:51;92951.41;;;7.62;100.00
10718;BME280;13513;42.700;23.124;2023-10-19T03:31:23;92945.62;;;7.51;100.00
10718;BME280;13513;42.700;23.124;2023-10-19T03:33:54;92946.82;;;7.46;100.00
10718;BME280;13513;42.700;23.124;2023-10-19T03:36:22;92937.36;;;7.36;100.00
10718;BME280;13513;42.700;23.124;2023-10-19T03:38:51;92939.66;;;7.12;100.00
10718;BME280;13513;42.700;23.124;2023-10-19T03:41:20;92947.27;;;7.11;100.00
10718;BME280;13513;42.700;23.124;2023-10-19T03:43:49;92936.92;;;7.07;100.00
10718;BME280;13513;42.700;23.124;2023-10-19T03:46:19;92929.21;;;7.14;100.00
10718;BME280;13513;42.700;23.124;2023-10-19T03:48:50;92928.83;;;7.20;100.00
10718;BME280;13513;42.700;23.124;2023-10-19T03:51:18;92933.08;;;7.21;100.00
10718;BME280;13513;42.700;23.124;2023-10-19T03:53:45;92927.83;;;7.21;100.00
10718;BME280;13513;42.700;23.124;2023-10-19T03:56:14;92924.00;;;7.26;100.00
10718;BME280;13513;42.700;23.124;2023-10-19T03:58:43;92932.91;;;7.25;100.00
10718;BME280;13513;42.700;23.124;2023-10-19T04:01:12;92937.64;;;7.25;100.00
10718;BME280;13513;42.700;23.124;2023-10-19T04:03:42;92940.20;;;7.23;100.00
10718;BME280;13513;42.700;23.124;2023-10-19T04:06:10;92945.25;;;7.36;100.00
10718;BME280;13513;42.700;23.124;2023-10-19T04:08:39;92933.42;;;7.36;100.00
10718;BME280;13513;42.700;23.124;2023-10-19T04:11:09;92938.94;;;7.34;100.00
10718;BME280;13513;42.700;23.124;2023-10-19T04:13:41;92932.81;;;7.31;100.00
10718;BME280;13513;42.700;23.124;2023-10-19T04:16:08;92934.56;;;7.28;100.00
10718;BME280;13513;42.700;23.124;2023-10-19T04:18:36;92933.20;;;7.37;100.00
10718;BME280;13513;42.700;23.124;2023-10-19T04:21:04;92931.16;;;7.39;100.00
10718;BME280;13513;42.700;23.124;2023-10-19T04:23:32;92927.00;;;7.41;100.00
10718;BME280;13513;42.700;23.124;2023-10-19T04:26:02;92925.63;;;7.50;100.00
10718;BME280;13513;42.700;23.124;2023-10-19T04:28:34;92930.06;;;7.49;100.00
10718;BME280;13513;42.700;23.124;2023-10-19T04:31:03;92921.88;;;7.57;100.00
10718;BME280;13513;42.700;23.124;2023-10-19T04:33:32;92919.64;;;7.52;100.00
10718;BME280;13513;42.700;23.124;2023-10-19T04:36:03;92917.56;;;7.54;100.00
10718;BME280;13513;42.700;23.124;2023-10-19T04:38:32;92910.99;;;7.54;100.00
10718;BME280;13513;42.700;23.124;2023-10-19T04:41:07;92905.73;;;7.54;100.00
10718;BME280;13513;42.700;23.124;2023-10-19T04:43:37;92904.14;;;7.53;100.00
10718;BME280;13513;42.700;23.124;2023-10-19T04:46:07;92909.74;;;7.45;100.00
10718;BME280;13513;42.700;23.124;2023-10-19T04:48:39;92902.08;;;7.43;100.00
10718;BME280;13513;42.700;23.124;2023-10-19T04:51:09;92905.97;;;7.41;100.00
10718;BME280;13513;42.700;23.124;2023-10-19T04:53:37;92902.03;;;7.41;100.00
10718;BME280;13513;42.700;23.124;2023-10-19T04:56:05;92900.98;;;7.42;100.00
10718;BME280;13513;42.700;23.124;2023-10-19T04:58:35;92905.18;;;7.52;100.00
10718;BME280;13513;42.700;23.124;2023-10-19T05:01:03;92906.94;;;7.60;100.00
10718;BME280;13513;42.700;23.124;2023-10-19T05:03:31;92913.63;;;7.54;100.00
10718;BME280;13513;42.700;23.124;2023-10-19T05:05:59;92916.36;;;7.59;100.00
10718;BME280;13513;42.700;23.124;2023-10-19T05:08:27;92918.59;;;7.64;100.00
10718;BME280;13513;42.700;23.124;2023-10-19T05:10:55;92915.02;;;7.68;100.00
10718;BME280;13513;42.700;23.124;2023-10-19T05:13:26;92919.30;;;7.83;100.00
10718;BME280;13513;42.700;23.124;2023-10-19T05:15:56;92913.35;;;7.76;100.00
10718;BME280;13513;42.700;23.124;2023-10-19T05:18:26;92901.55;;;7.90;100.00
10718;BME280;13513;42.700;23.124;2023-10-19T05:20:53;92906.98;;;7.97;100.00
10718;BME280;13513;42.700;23.124;2023-10-19T05:23:24;92907.72;;;7.95;100.00
10718;BME280;13513;42.700;23.124;2023-10-19T05:26:04;92913.03;;;8.09;100.00
10718;BME280;13513;42.700;23.124;2023-10-19T05:28:29;92920.23;;;8.25;100.00
10718;BME280;13513;42.700;23.124;2023-10-19T05:30:57;92918.09;;;8.37;100.00
10718;BME280;13513;42.700;23.124;2023-10-19T05:33:28;92918.36;;;8.49;100.00
10718;BME280;13513;42.700;23.124;2023-10-19T05:35:56;92924.89;;;8.61;100.00
10718;BME280;13513;42.700;23.124;2023-10-19T05:38:23;92919.02;;;8.70;100.00
10718;BME280;13513;42.700;23.124;2023-10-19T05:40:51;92919.77;;;8.82;100.00
10718;BME280;13513;42.700;23.124;2023-10-19T05:43:18;92923.88;;;8.62;100.00
10718;BME280;13513;42.700;23.124;2023-10-19T05:45:46;92923.64;;;8.38;100.00
10718;BME280;13513;42.700;23.124;2023-10-19T05:48:15;92923.09;;;8.50;100.00
10718;BME280;13513;42.700;23.124;2023-10-19T05:50:43;92922.44;;;8.57;100.00
10718;BME280;13513;42.700;23.124;2023-10-19T05:53:10;92923.20;;;8.55;100.00
10718;BME280;13513;42.700;23.124;2023-10-19T05:55:38;92933.88;;;8.48;100.00
10718;BME280;13513;42.700;23.124;2023-10-19T05:58:06;92932.56;;;8.48;100.00
10718;BME280;13513;42.700;23.124;2023-10-19T06:00:33;92937.33;;;8.63;100.00
10718;BME280;13513;42.700;23.124;2023-10-19T06:03:01;92928.34;;;8.61;100.00
10718;BME280;13513;42.700;23.124;2023-10-19T06:05:30;92928.61;;;8.62;100.00
10718;BME280;13513;42.700;23.124;2023-10-19T06:07:58;92935.23;;;8.65;100.00
10718;BME280;13513;42.700;23.124;2023-10-19T06:10:28;92934.33;;;8.85;100.00
10718;BME280;13513;42.700;23.124;2023-10-19T06:12:56;92937.18;;;8.97;100.00
10718;BME280;13513;42.700;23.124;2023-10-19T06:15:24;92929.20;;;9.06;100.00
10718;BME280;13513;42.700;23.124;2023-10-19T06:17:52;92931.32;;;8.93;100.00
10718;BME280;13513;42.700;23.124;2023-10-19T06:20:19;92920.67;;;9.02;100.00
10718;BME280;13513;42.700;23.124;2023-10-19T06:22:52;92924.66;;;9.04;100.00
10718;BME280;13513;42.700;23.124;2023-10-19T06:25:23;92927.38;;;9.09;100.00
10718;BME280;13513;42.700;23.124;2023-10-19T06:27:52;92922.61;;;9.23;100.00
10718;BME280;13513;42.700;23.124;2023-10-19T06:30:22;92938.73;;;9.24;100.00
10718;BME280;13513;42.700;23.124;2023-10-19T06:32:51;92938.69;;;9.38;100.00
10718;BME280;13513;42.700;23.124;2023-10-19T06:35:20;92936.67;;;9.42;100.00
10718;BME280;13513;42.700;23.124;2023-10-19T06:37:48;92934.20;;;9.52;100.00
10718;BME280;13513;42.700;23.124;2023-10-19T06:40:18;92944.00;;;9.71;100.00
10718;BME280;13513;42.700;23.124;2023-10-19T06:42:46;92932.22;;;9.95;100.00
10718;BME280;13513;42.700;23.124;2023-10-19T06:45:14;92929.70;;;10.02;100.00
10718;BME280;13513;42.700;23.124;2023-10-19T06:47:47;92920.08;;;9.77;100.00
10718;BME280;13513;42.700;23.124;2023-10-19T06:50:18;92920.25;;;9.71;100.00
10718;BME280;13513;42.700;23.124;2023-10-19T06:52:47;92915.20;;;9.86;100.00
10718;BME280;13513;42.700;23.124;2023-10-19T06:55:16;92923.36;;;9.84;100.00
10718;BME280;13513;42.700;23.124;2023-10-19T06:57:48;92914.08;;;10.17;100.00
10718;BME280;13513;42.700;23.124;2023-10-19T07:00:17;92930.33;;;10.47;100.00
10718;BME280;13513;42.700;23.124;2023-10-19T07:02:50;92926.17;;;10.75;100.00
10718;BME280;13513;42.700;23.124;2023-10-19T07:05:19;92923.56;;;10.99;100.00
10718;BME280;13513;42.700;23.124;2023-10-19T07:07:54;92929.99;;;11.08;100.00
10718;BME280;13513;42.700;23.124;2023-10-19T07:10:23;92929.39;;;11.01;100.00
10718;BME280;13513;42.700;23.124;2023-10-19T07:12:53;92930.05;;;10.89;100.00
10718;BME280;13513;42.700;23.124;2023-10-19T07:15:22;92928.83;;;10.97;100.00
10718;BME280;13513;42.700;23.124;2023-10-19T07:17:51;92929.31;;;10.70;100.00
10718;BME280;13513;42.700;23.124;2023-10-19T07:20:21;92929.31;;;10.94;100.00
10718;BME280;13513;42.700;23.124;2023-10-19T07:23:03;92935.02;;;11.07;100.00
10718;BME280;13513;42.700;23.124;2023-10-19T07:25:36;92945.64;;;11.12;100.00
10718;BME280;13513;42.700;23.124;2023-10-19T07:28:15;92955.86;;;11.28;100.00
10718;BME280;13513;42.700;23.124;2023-10-19T07:30:44;92953.91;;;11.45;100.00
10718;BME280;13513;42.700;23.124;2023-10-19T07:33:13;92943.87;;;11.20;100.00
10718;BME280;13513;42.700;23.124;2023-10-19T07:35:46;92951.13;;;11.06;100.00
10718;BME280;13513;42.700;23.124;2023-10-19T07:38:15;92957.02;;;11.39;100.00
10718;BME280;13513;42.700;23.124;2023-10-19T07:40:44;92949.43;;;11.74;100.00
10718;BME280;13513;42.700;23.124;2023-10-19T07:43:11;92948.08;;;12.45;100.00
10718;BME280;13513;42.700;23.124;2023-10-19T07:45:39;92952.19;;;13.37;100.00
10718;BME280;13513;42.700;23.124;2023-10-19T07:48:06;92944.55;;;14.55;99.13
10718;BME280;13513;42.700;23.124;2023-10-19T07:50:37;92944.52;;;16.19;89.85
10718;BME280;13513;42.700;23.124;2023-10-19T07:53:06;92945.45;;;18.61;70.83
10718;BME280;13513;42.700;23.124;2023-10-19T07:55:36;92945.49;;;20.96;54.05
10718;BME280;13513;42.700;23.124;2023-10-19T07:58:05;92953.26;;;22.94;45.44
10718;BME280;13513;42.700;23.124;2023-10-19T08:00:36;92948.14;;;24.29;41.42
10718;BME280;13513;42.700;23.124;2023-10-19T08:03:05;92939.82;;;24.54;39.12
10718;BME280;13513;42.700;23.124;2023-10-19T08:05:36;92933.33;;;24.82;37.00
10718;BME280;13513;42.700;23.124;2023-10-19T08:08:04;92936.41;;;23.75;39.54
10718;BME280;13513;42.700;23.124;2023-10-19T08:10:32;92933.39;;;24.67;39.25
10718;BME280;13513;42.700;23.124;2023-10-19T08:13:01;92928.97;;;26.63;35.75
10718;BME280;13513;42.700;23.124;2023-10-19T08:15:29;92926.50;;;27.82;33.62
10718;BME280;13513;42.700;23.124;2023-10-19T08:17:57;92914.86;;;28.85;31.97
10718;BME280;13513;42.700;23.124;2023-10-19T08:20:24;92917.55;;;30.13;30.31
10718;BME280;13513;42.700;23.124;2023-10-19T08:22:54;92918.23;;;31.21;28.73
10718;BME280;13513;42.700;23.124;2023-10-19T08:25:24;92914.95;;;31.58;27.71
10718;BME280;13513;42.700;23.124;2023-10-19T08:27:53;92921.28;;;29.34;29.74
10718;BME280;13513;42.700;23.124;2023-10-19T08:30:23;92901.90;;;28.97;30.16
10718;BME280;13513;42.700;23.124;2023-10-19T08:32:51;92904.35;;;27.64;32.15
10718;BME280;13513;42.700;23.124;2023-10-19T08:35:21;92914.08;;;25.88;34.92
10718;BME280;13513;42.700;23.124;2023-10-19T08:37:52;92914.53;;;23.68;37.71
10718;BME280;13513;42.700;23.124;2023-10-19T08:40:20;92923.80;;;21.42;42.89
10718;BME280;13513;42.700;23.124;2023-10-19T08:42:49;92920.56;;;20.51;45.93
10718;BME280;13513;42.700;23.124;2023-10-19T08:45:17;92914.08;;;20.63;47.47
10718;BME280;13513;42.700;23.124;2023-10-19T08:47:54;92930.02;;;21.96;45.56
10718;BME280;13513;42.700;23.124;2023-10-19T08:50:33;92914.57;;;22.99;41.30
10718;BME280;13513;42.700;23.124;2023-10-19T08:53:00;92927.89;;;22.64;41.12
10718;BME280;13513;42.700;23.124;2023-10-19T08:55:29;92923.61;;;20.89;44.59
10718;BME280;13513;42.700;23.124;2023-10-19T08:57:57;92911.77;;;21.40;44.80
10718;BME280;13513;42.700;23.124;2023-10-19T09:00:43;92914.50;;;21.93;44.12
10718;BME280;13513;42.700;23.124;2023-10-19T09:03:13;92905.67;;;21.37;45.29
10718;BME280;13513;42.700;23.124;2023-10-19T09:05:43;92894.42;;;20.13;48.54
10718;BME280;13513;42.700;23.124;2023-10-19T09:08:16;92893.19;;;20.41;51.03
10718;BME280;13513;42.700;23.124;2023-10-19T09:10:45;92884.47;;;20.13;54.73
10718;BME280;13513;42.700;23.124;2023-10-19T09:13:13;92888.69;;;19.81;51.83
10718;BME280;13513;42.700;23.124;2023-10-19T09:15:42;92889.28;;;19.29;55.33
10718;BME280;13513;42.700;23.124;2023-10-19T09:18:20;92889.44;;;18.94;57.08
10718;BME280;13513;42.700;23.124;2023-10-19T09:20:49;92886.00;;;19.18;58.23
10718;BME280;13513;42.700;23.124;2023-10-19T09:23:25;92882.84;;;19.43;54.12
10718;BME280;13513;42.700;23.124;2023-10-19T09:25:57;92884.53;;;18.99;59.13
10718;BME280;13513;42.700;23.124;2023-10-19T09:28:26;92885.36;;;18.70;58.35
10718;BME280;13513;42.700;23.124;2023-10-19T09:30:54;92879.57;;;17.67;64.07
10718;BME280;13513;42.700;23.124;2023-10-19T09:33:23;92872.88;;;17.69;64.24
10718;BME280;13513;42.700;23.124;2023-10-19T09:35:51;92870.82;;;17.64;68.53
10718;BME280;13513;42.700;23.124;2023-10-19T09:38:23;92863.68;;;17.75;66.13
10718;BME280;13513;42.700;23.124;2023-10-19T09:40:53;92856.66;;;18.11;66.61
10718;BME280;13513;42.700;23.124;2023-10-19T09:43:35;92859.92;;;17.92;67.04
10718;BME280;13513;42.700;23.124;2023-10-19T09:46:09;92859.96;;;17.74;69.43
10718;BME280;13513;42.700;23.124;2023-10-19T09:48:43;92862.67;;;18.19;63.79
10718;BME280;13513;42.700;23.124;2023-10-19T09:51:12;92870.17;;;17.88;64.97
10718;BME280;13513;42.700;23.124;2023-10-19T09:53:40;92872.60;;;17.68;66.79
10718;BME280;13513;42.700;23.124;2023-10-19T09:56:12;92873.48;;;16.82;71.75
10718;BME280;13513;42.700;23.124;2023-10-19T09:58:54;92866.92;;;17.35;69.82
10718;BME280;13513;42.700;23.124;2023-10-19T10:01:22;92852.11;;;18.28;64.10
10718;BME280;13513;42.700;23.124;2023-10-19T10:03:53;92858.53;;;18.99;59.78
10718;BME280;13513;42.700;23.124;2023-10-19T10:09:21;92848.22;;;22.77;44.85
10718;BME280;13513;42.700;23.124;2023-10-19T10:11:54;92857.46;;;23.05;42.44
10718;BME280;13513;42.700;23.124;2023-10-19T10:14:23;92852.91;;;20.08;48.40
10718;BME280;13513;42.700;23.124;2023-10-19T10:17:02;92846.00;;;19.24;53.20
10718;BME280;13513;42.700;23.124;2023-10-19T10:19:29;92846.62;;;19.19;53.67
10718;BME280;13513;42.700;23.124;2023-10-19T10:22:08;92837.61;;;18.15;61.07
10718;BME280;13513;42.700;23.124;2023-10-19T10:24:41;92830.17;;;17.64;64.15
10718;BME280;13513;42.700;23.124;2023-10-19T10:27:10;92823.92;;;17.71;68.08
10718;BME280;13513;42.700;23.124;2023-10-19T10:30:14;92810.20;;;18.07;67.64
10718;BME280;13513;42.700;23.124;2023-10-19T10:32:42;92801.09;;;18.24;66.12
10718;BME280;13513;42.700;23.124;2023-10-19T10:34:45;92792.88;;;18.50;64.28
10718;BME280;13513;42.700;23.124;2023-10-19T10:37:15;92803.02;;;18.51;61.69
10718;BME280;13513;42.700;23.124;2023-10-19T10:39:42;92795.55;;;18.77;61.40
10718;BME280;13513;42.700;23.124;2023-10-19T10:42:11;92783.81;;;19.00;60.50
10718;BME280;13513;42.700;23.124;2023-10-19T10:44:47;92784.17;;;19.79;56.44
10718;BME280;13513;42.700;23.124;2023-10-19T10:47:21;92781.78;;;20.80;52.29
10718;BME280;13513;42.700;23.124;2023-10-19T10:49:56;92779.59;;;21.72;48.30
10718;BME280;13513;42.700;23.124;2023-10-19T10:52:34;92759.69;;;22.96;44.67
10718;BME280;13513;42.700;23.124;2023-10-19T10:55:10;92755.96;;;23.39;42.76
10718;BME280;13513;42.700;23.124;2023-10-19T10:57:40;92758.44;;;23.23;42.45
10718;BME280;13513;42.700;23.124;2023-10-19T11:00:12;92745.95;;;22.20;45.37
10718;BME280;13513;42.700;23.124;2023-10-19T11:02:45;92746.96;;;23.88;42.61
10718;BME280;13513;42.700;23.124;2023-10-19T11:05:15;92746.66;;;24.16;41.33
10718;BME280;13513;42.700;23.124;2023-10-19T11:08:08;92746.78;;;25.18;38.98
10718;BME280;13513;42.700;23.124;2023-10-19T11:10:49;92744.53;;;25.20;38.75
10718;BME280;13513;42.700;23.124;2023-10-19T11:13:22;92741.95;;;25.17;38.33
10718;BME280;13513;42.700;23.124;2023-10-19T11:15:52;92730.30;;;24.51;39.31
10718;BME280;13513;42.700;23.124;2023-10-19T11:18:30;92726.30;;;24.18;40.32
10718;BME280;13513;42.700;23.124;2023-10-19T11:21:00;92733.16;;;24.16;41.13
10718;BME280;13513;42.700;23.124;2023-10-19T11:23:37;92719.66;;;23.07;41.96
10718;BME280;13513;42.700;23.124;2023-10-19T11:26:05;92719.42;;;22.91;43.17
10718;BME280;13513;42.700;23.124;2023-10-19T11:28:34;92719.47;;;22.54;44.13
10718;BME280;13513;42.700;23.124;2023-10-19T11:31:20;92712.31;;;23.01;42.90
10718;BME280;13513;42.700;23.124;2023-10-19T11:33:52;92705.03;;;23.02;42.43
10718;BME280;13513;42.700;23.124;2023-10-19T11:36:20;92712.38;;;22.78;42.84
10718;BME280;13513;42.700;23.124;2023-10-19T11:38:51;92707.64;;;22.38;44.79
10718;BME280;13513;42.700;23.124;2023-10-19T11:41:18;92706.14;;;21.88;45.79
10718;BME280;13513;42.700;23.124;2023-10-19T11:43:47;92704.75;;;22.66;44.34
10718;BME280;13513;42.700;23.124;2023-10-19T11:46:17;92696.42;;;23.44;42.97
10718;BME280;13513;42.700;23.124;2023-10-19T11:48:44;92693.20;;;23.83;41.07
10718;BME280;13513;42.700;23.124;2023-10-19T11:51:13;92704.08;;;22.63;42.26
10718;BME280;13513;42.700;23.124;2023-10-19T11:53:42;92713.44;;;22.34;43.16
10718;BME280;13513;42.700;23.124;2023-10-19T11:56:10;92703.11;;;20.88;45.43
10718;BME280;13513;42.700;23.124;2023-10-19T11:58:43;92692.89;;;21.07;45.37
10718;BME280;13513;42.700;23.124;2023-10-19T12:01:12;92687.91;;;21.20;45.91
10718;BME280;13513;42.700;23.124;2023-10-19T12:03:40;92687.21;;;21.17;46.07
10718;BME280;13513;42.700;23.124;2023-10-19T12:06:10;92686.58;;;21.11;46.56
10718;BME280;13513;42.700;23.124;2023-10-19T12:08:39;92687.95;;;20.55;47.59
10718;BME280;13513;42.700;23.124;2023-10-19T12:11:06;92687.31;;;20.50;47.75
10718;BME280;13513;42.700;23.124;2023-10-19T12:13:38;92683.78;;;20.32;48.60
10718;BME280;13513;42.700;23.124;2023-10-19T12:16:06;92677.04;;;20.24;49.16
10718;BME280;13513;42.700;23.124;2023-10-19T12:18:33;92671.44;;;20.23;50.47
10718;BME280;13513;42.700;23.124;2023-10-19T12:21:01;92673.42;;;20.09;50.21
10718;BME280;13513;42.700;23.124;2023-10-19T12:23:29;92669.94;;;20.19;50.15
10718;BME280;13513;42.700;23.124;2023-10-19T12:25:57;92665.42;;;20.17;50.07
10718;BME280;13513;42.700;23.124;2023-10-19T12:28:26;92666.08;;;20.23;50.48
10718;BME280;13513;42.700;23.124;2023-10-19T12:30:54;92659.13;;;20.41;50.02
10718;BME280;13513;42.700;23.124;2023-10-19T12:33:22;92665.88;;;20.39;49.74
10718;BME280;13513;42.700;23.124;2023-10-19T12:35:50;92659.17;;;20.30;50.27
10718;BME280;13513;42.700;23.124;2023-10-19T12:38:26;92659.17;;;20.39;49.37
10718;BME280;13513;42.700;23.124;2023-10-19T12:40:53;92667.98;;;20.22;50.20
10718;BME280;13513;42.700;23.124;2023-10-19T12:43:22;92665.86;;;19.91;50.71
10718;BME280;13513;42.700;23.124;2023-10-19T12:45:49;92664.46;;;20.13;50.63
10718;BME280;13513;42.700;23.124;2023-10-19T12:48:24;92663.70;;;20.21;50.70
10718;BME280;13513;42.700;23.124;2023-10-19T12:50:53;92670.55;;;20.36;49.96
10718;BME280;13513;42.700;23.124;2023-10-19T12:53:21;92663.92;;;20.42;50.28
10718;BME280;13513;42.700;23.124;2023-10-19T12:55:50;92657.73;;;20.61;50.12
10718;BME280;13513;42.700;23.124;2023-10-19T12:58:18;92661.16;;;20.36;50.01
10718;BME280;13513;42.700;23.124;2023-10-19T13:00:49;92656.67;;;20.42;49.77
10718;BME280;13513;42.700;23.124;2023-10-19T13:03:16;92651.59;;;20.77;49.31
10718;BME280;13513;42.700;23.124;2023-10-19T13:05:45;92644.43;;;21.01;49.57
10718;BME280;13513;42.700;23.124;2023-10-19T13:08:13;92648.30;;;21.40;47.86
10718;BME280;13513;42.700;23.124;2023-10-19T13:10:43;92649.19;;;21.69;46.73
10718;BME280;13513;42.700;23.124;2023-10-19T13:13:12;92640.11;;;21.51;46.51